sensor_id;sensor_type;location;lat;lon;timestamp;pressure;altitude;pressure_sealevel;temperature;humidity
41264;BME280;26998;48.714;9.414;2022-12-08T00:01:27;98386.09;;;0.32;100.00
41264;BME280;26998;48.714;9.414;2022-12-08T00:03:54;98383.06;;;0.27;100.00
41264;BME280;26998;48.714;9.414;2022-12-08T00:06:38;98387.66;;;0.25;100.00
41264;BME280;26998;48.714;9.414;2022-12-08T00:09:05;98385.59;;;0.19;100.00
41264;BME280;26998;48.714;9.414;2022-12-08T00:11:32;98384.31;;;0.23;100.00
41264;BME280;26998;48.714;9.414;2022-12-08T00:13:58;98395.91;;;0.30;100.00
41264;BME280;26998;48.714;9.414;2022-12-08T00:16:25;98386.50;;;0.28;100.00
41264;BME280;26998;48.714;9.414;2022-12-08T00:18:52;98387.91;;;0.32;100.00
41264;BME280;26998;48.714;9.414;2022-12-08T00:21:19;98380.38;;;0.37;100.00
41264;BME280;26998;48.714;9.414;2022-12-08T00:23:45;98375.38;;;0.43;100.00
41264;BME280;26998;48.714;9.414;2022-12-08T00:26:12;98373.13;;;0.49;100.00
41264;BME280;26998;48.714;9.414;2022-12-08T00:28:38;98378.28;;;0.50;100.00
41264;BME280;26998;48.714;9.414;2022-12-08T00:31:10;98369.00;;;0.46;100.00
41264;BME280;26998;48.714;9.414;2022-12-08T00:33:37;98365.72;;;0.44;100.00
41264;BME280;26998;48.714;9.414;2022-12-08T00:36:08;98368.91;;;0.38;100.00
41264;BME280;26998;48.714;9.414;2022-12-08T00:38:36;98369.50;;;0.32;100.00
41264;BME280;26998;48.714;9.414;2022-12-08T00:41:05;98365.63;;;0.26;100.00
41264;BME280;26998;48.714;9.414;2022-12-08T00:43:32;98360.25;;;0.18;100.00
41264;BME280;26998;48.714;9.414;2022-12-08T00:45:59;98360.84;;;0.12;100.00
41264;BME280;26998;48.714;9.414;2022-12-08T00:48:25;98356.97;;;0.06;100.00
41264;BME280;26998;48.714;9.414;2022-12-08T00:50:52;98356.44;;;0.03;100.00
41264;BME280;26998;48.714;9.414;2022-12-08T00:53:18;98363.78;;;-0.01;100.00
41264;BME280;26998;48.714;9.414;2022-12-08T00:55:45;98358.00;;;-0.05;100.00
41264;BME280;26998;48.714;9.414;2022-12-08T00:58:11;98355.94;;;-0.11;100.00
41264;BME280;26998;48.714;9.414;2022-12-08T01:00:41;98354.16;;;-0.20;100.00
41264;BME280;26998;48.714;9.414;2022-12-08T01:03:09;98353.63;;;-0.24;100.00
41264;BME280;26998;48.714;9.414;2022-12-08T01:05:36;98350.75;;;-0.30;100.00
41264;BME280;26998;48.714;9.414;2022-12-08T01:08:06;98354.22;;;-0.39;100.00
41264;BME280;26998;48.714;9.414;2022-12-08T01:10:34;98346.63;;;-0.42;100.00
41264;BME280;26998;48.714;9.414;2022-12-08T01:13:01;98351.88;;;-0.52;100.00
41264;BME280;26998;48.714;9.414;2022-12-08T01:15:27;98356.59;;;-0.56;100.00
41264;BME280;26998;48.714;9.414;2022-12-08T01:17:54;98357.69;;;-0.58;100.00
41264;BME280;26998;48.714;9.414;2022-12-08T01:20:20;98349.94;;;-0.60;100.00
41264;BME280;26998;48.714;9.414;2022-12-08T01:22:47;98353.53;;;-0.61;100.00
41264;BME280;26998;48.714;9.414;2022-12-08T01:25:13;98364.75;;;-0.59;100.00
41264;BME280;26998;48.714;9.414;2022-12-08T01:27:40;98364.59;;;-0.67;100.00
41264;BME280;26998;48.714;9.414;2022-12-08T01:30:07;98366.53;;;-0.69;100.00
41264;BME280;26998;48.714;9.414;2022-12-08T01:32:33;98372.03;;;-0.72;100.00
41264;BME280;26998;48.714;9.414;2022-12-08T01:35:00;98368.06;;;-0.76;100.00
41264;BME280;26998;48.714;9.414;2022-12-08T01:37:26;98368.34;;;-0.79;100.00
41264;BME280;26998;48.714;9.414;2022-12-08T01:39:53;98370.25;;;-0.81;100.00
41264;BME280;26998;48.714;9.414;2022-12-08T01:42:20;98360.03;;;-0.84;100.00
41264;BME280;26998;48.714;9.414;2022-12-08T01:44:59;98360.19;;;-0.86;100.00
41264;BME280;26998;48.714;9.414;2022-12-08T01:47:31;98364.59;;;-0.86;100.00
41264;BME280;26998;48.714;9.414;2022-12-08T01:50:00;98367.91;;;-0.94;100.00
41264;BME280;26998;48.714;9.414;2022-12-08T01:52:57;98368.88;;;-0.95;100.00
41264;BME280;26998;48.714;9.414;2022-12-08T01:55:30;98375.50;;;-1.01;100.00
41264;BME280;26998;48.714;9.414;2022-12-08T01:58:02;98366.09;;;-1.03;100.00
41264;BME280;26998;48.714;9.414;2022-12-08T02:00:32;98364.59;;;-1.06;100.00
41264;BME280;26998;48.714;9.414;2022-12-08T02:03:04;98365.81;;;-1.10;100.00
41264;BME280;26998;48.714;9.414;2022-12-08T02:05:34;98362.09;;;-1.17;100.00
41264;BME280;26998;48.714;9.414;2022-12-08T02:08:05;98360.97;;;-1.24;100.00
41264;BME280;26998;48.714;9.414;2022-12-08T02:10:35;98347.28;;;-1.28;100.00
41264;BME280;26998;48.714;9.414;2022-12-08T02:13:02;98347.28;;;-1.28;100.00
41264;BME280;26998;48.714;9.414;2022-12-08T02:22:03;98342.56;;;-1.44;100.00
41264;BME280;26998;48.714;9.414;2022-12-08T02:27:27;98342.44;;;-1.52;100.00
41264;BME280;26998;48.714;9.414;2022-12-08T02:38:59;98331.94;;;-1.61;100.00
41264;BME280;26998;48.714;9.414;2022-12-08T02:42:07;98323.50;;;-1.65;100.00
41264;BME280;26998;48.714;9.414;2022-12-08T02:44:39;98324.88;;;-1.71;100.00
41264;BME280;26998;48.714;9.414;2022-12-08T02:47:11;98320.28;;;-1.78;100.00
41264;BME280;26998;48.714;9.414;2022-12-08T02:49:39;98320.84;;;-1.75;100.00
41264;BME280;26998;48.714;9.414;2022-12-08T02:54:35;98315.75;;;-1.76;100.00
41264;BME280;26998;48.714;9.414;2022-12-08T02:57:14;98315.47;;;-1.73;100.00
41264;BME280;26998;48.714;9.414;2022-12-08T02:59:59;98306.25;;;-1.77;100.00
41264;BME280;26998;48.714;9.414;2022-12-08T03:02:47;98315.88;;;-1.78;100.00
41264;BME280;26998;48.714;9.414;2022-12-08T03:05:39;98308.69;;;-1.86;100.00
41264;BME280;26998;48.714;9.414;2022-12-08T03:08:14;98307.88;;;-1.86;100.00
41264;BME280;26998;48.714;9.414;2022-12-08T03:10:51;98304.81;;;-1.81;100.00
41264;BME280;26998;48.714;9.414;2022-12-08T03:13:21;98311.31;;;-1.86;100.00
41264;BME280;26998;48.714;9.414;2022-12-08T03:15:51;98307.97;;;-1.88;100.00
41264;BME280;26998;48.714;9.414;2022-12-08T03:18:22;98308.41;;;-1.92;100.00
41264;BME280;26998;48.714;9.414;2022-12-08T03:20:52;98296.25;;;-1.93;100.00
41264;BME280;26998;48.714;9.414;2022-12-08T03:23:21;98304.25;;;-1.95;100.00
41264;BME280;26998;48.714;9.414;2022-12-08T03:25:58;98653.78;;;-1.99;100.00
41264;BME280;26998;48.714;9.414;2022-12-08T03:28:26;98654.38;;;-1.95;100.00
41264;BME280;26998;48.714;9.414;2022-12-08T03:30:55;98664.50;;;-2.02;100.00
41264;BME280;26998;48.714;9.414;2022-12-08T03:33:30;98659.50;;;-2.05;100.00
41264;BME280;26998;48.714;9.414;2022-12-08T03:36:00;98657.84;;;-2.06;100.00
41264;BME280;26998;48.714;9.414;2022-12-08T03:38:36;98651.91;;;-2.08;100.00
41264;BME280;26998;48.714;9.414;2022-12-08T03:41:03;98648.69;;;-2.12;100.00
41264;BME280;26998;48.714;9.414;2022-12-08T03:43:29;98638.09;;;-2.10;100.00
41264;BME280;26998;48.714;9.414;2022-12-08T03:45:55;98646.19;;;-2.13;100.00
41264;BME280;26998;48.714;9.414;2022-12-08T03:48:22;98637.75;;;-2.17;100.00
41264;BME280;26998;48.714;9.414;2022-12-08T03:50:48;98632.63;;;-2.18;100.00
41264;BME280;26998;48.714;9.414;2022-12-08T03:53:15;98621.31;;;-2.19;100.00
41264;BME280;26998;48.714;9.414;2022-12-08T03:55:41;98617.16;;;-2.21;100.00
41264;BME280;26998;48.714;9.414;2022-12-08T03:58:08;98615.75;;;-2.25;100.00
41264;BME280;26998;48.714;9.414;2022-12-08T04:00:34;98622.06;;;-2.28;100.00
41264;BME280;26998;48.714;9.414;2022-12-08T04:03:01;98624.94;;;-2.31;100.00
41264;BME280;26998;48.714;9.414;2022-12-08T04:05:27;98624.00;;;-2.30;100.00
41264;BME280;26998;48.714;9.414;2022-12-08T04:07:56;98625.78;;;-2.30;100.00
41264;BME280;26998;48.714;9.414;2022-12-08T04:10:23;98616.72;;;-2.26;100.00
41264;BME280;26998;48.714;9.414;2022-12-08T04:12:49;98618.63;;;-2.28;100.00
41264;BME280;26998;48.714;9.414;2022-12-08T04:15:15;98629.09;;;-2.28;100.00
41264;BME280;26998;48.714;9.414;2022-12-08T04:17:42;98623.41;;;-2.34;100.00
41264;BME280;26998;48.714;9.414;2022-12-08T04:20:09;98619.25;;;-2.36;100.00
41264;BME280;26998;48.714;9.414;2022-12-08T04:22:35;98620.53;;;-2.30;100.00
41264;BME280;26998;48.714;9.414;2022-12-08T04:25:02;98619.25;;;-2.36;100.00
41264;BME280;26998;48.714;9.414;2022-12-08T04:27:28;98615.09;;;-2.39;100.00
41264;BME280;26998;48.714;9.414;2022-12-08T04:29:55;98611.75;;;-2.41;100.00
41264;BME280;26998;48.714;9.414;2022-12-08T04:32:21;98610.09;;;-2.42;100.00
41264;BME280;26998;48.714;9.414;2022-12-08T04:34:48;98605.69;;;-2.41;100.00
41264;BME280;26998;48.714;9.414;2022-12-08T04:37:14;98600.94;;;-2.47;100.00
41264;BME280;26998;48.714;9.414;2022-12-08T04:39:41;98603.94;;;-2.52;100.00
41264;BME280;26998;48.714;9.414;2022-12-08T04:42:07;98600.94;;;-2.59;100.00
41264;BME280;26998;48.714;9.414;2022-12-08T04:44:33;98600.59;;;-2.65;100.00
41264;BME280;26998;48.714;9.414;2022-12-08T04:47:00;98599.06;;;-2.68;100.00
41264;BME280;26998;48.714;9.414;2022-12-08T04:49:27;98600.50;;;-2.64;100.00
41264;BME280;26998;48.714;9.414;2022-12-08T04:51:53;98590.75;;;-2.73;100.00
41264;BME280;26998;48.714;9.414;2022-12-08T04:54:20;98596.56;;;-2.69;100.00
41264;BME280;26998;48.714;9.414;2022-12-08T04:56:46;98548.03;;;-2.62;100.00
41264;BME280;26998;48.714;9.414;2022-12-08T04:59:13;98548.16;;;-2.64;100.00
41264;BME280;26998;48.714;9.414;2022-12-08T05:01:39;98549.81;;;-2.63;100.00
41264;BME280;26998;48.714;9.414;2022-12-08T05:04:06;98551.38;;;-2.60;100.00
41264;BME280;26998;48.714;9.414;2022-12-08T05:06:33;98546.50;;;-2.65;100.00
41264;BME280;26998;48.714;9.414;2022-12-08T05:08:59;98556.25;;;-2.67;100.00
41264;BME280;26998;48.714;9.414;2022-12-08T05:11:26;98557.31;;;-2.69;100.00
41264;BME280;26998;48.714;9.414;2022-12-08T05:13:52;98549.63;;;-2.71;100.00
41264;BME280;26998;48.714;9.414;2022-12-08T05:16:18;98548.91;;;-2.73;100.00
41264;BME280;26998;48.714;9.414;2022-12-08T05:18:45;98537.47;;;-2.72;100.00
41264;BME280;26998;48.714;9.414;2022-12-08T05:21:11;98536.06;;;-2.76;100.00
41264;BME280;26998;48.714;9.414;2022-12-08T05:23:38;98538.69;;;-2.76;100.00
41264;BME280;26998;48.714;9.414;2022-12-08T05:26:04;98527.38;;;-2.76;100.00
41264;BME280;26998;48.714;9.414;2022-12-08T05:28:31;98533.78;;;-2.81;100.00
41264;BME280;26998;48.714;9.414;2022-12-08T05:31:09;98522.66;;;-2.83;100.00
41264;BME280;26998;48.714;9.414;2022-12-08T05:33:36;98525.84;;;-2.90;100.00
41264;BME280;26998;48.714;9.414;2022-12-08T05:36:03;98530.97;;;-2.89;100.00
41264;BME280;26998;48.714;9.414;2022-12-08T05:38:29;98532.53;;;-2.86;100.00
41264;BME280;26998;48.714;9.414;2022-12-08T05:40:56;98533.00;;;-2.92;100.00
41264;BME280;26998;48.714;9.414;2022-12-08T05:43:22;98531.56;;;-2.96;100.00
41264;BME280;26998;48.714;9.414;2022-12-08T05:45:49;98536.09;;;-2.98;100.00
41264;BME280;26998;48.714;9.414;2022-12-08T05:48:15;98535.50;;;-3.02;100.00
41264;BME280;26998;48.714;9.414;2022-12-08T05:50:49;98543.34;;;-3.02;100.00
41264;BME280;26998;48.714;9.414;2022-12-08T05:53:17;98538.97;;;-3.02;100.00
41264;BME280;26998;48.714;9.414;2022-12-08T05:55:44;98540.25;;;-2.96;100.00
41264;BME280;26998;48.714;9.414;2022-12-08T05:58:13;98537.88;;;-2.99;100.00
41264;BME280;26998;48.714;9.414;2022-12-08T06:00:40;98534.78;;;-3.04;100.00
41264;BME280;26998;48.714;9.414;2022-12-08T06:03:07;98533.97;;;-3.05;100.00
41264;BME280;26998;48.714;9.414;2022-12-08T06:05:36;98528.16;;;-3.08;100.00
41264;BME280;26998;48.714;9.414;2022-12-08T06:08:05;98530.03;;;-3.10;100.00
41264;BME280;26998;48.714;9.414;2022-12-08T06:10:32;98533.38;;;-3.08;100.00
41264;BME280;26998;48.714;9.414;2022-12-08T06:12:59;98533.38;;;-3.08;100.00
41264;BME280;26998;48.714;9.414;2022-12-08T06:15:25;98535.75;;;-3.16;100.00
41264;BME280;26998;48.714;9.414;2022-12-08T06:17:52;98528.88;;;-3.17;100.00
41264;BME280;26998;48.714;9.414;2022-12-08T06:20:18;98527.91;;;-3.16;100.00
41264;BME280;26998;48.714;9.414;2022-12-08T06:22:45;98533.47;;;-3.21;100.00
41264;BME280;26998;48.714;9.414;2022-12-08T06:25:11;98532.06;;;-3.14;100.00
41264;BME280;26998;48.714;9.414;2022-12-08T06:27:38;98538.22;;;-3.15;100.00
41264;BME280;26998;48.714;9.414;2022-12-08T06:30:05;98532.91;;;-3.13;100.00
41264;BME280;26998;48.714;9.414;2022-12-08T06:32:32;98540.00;;;-3.15;100.00
41264;BME280;26998;48.714;9.414;2022-12-08T06:34:58;98527.41;;;-3.21;100.00
41264;BME280;26998;48.714;9.414;2022-12-08T06:37:25;98543.34;;;-3.25;100.00
41264;BME280;26998;48.714;9.414;2022-12-08T06:39:51;98538.09;;;-3.25;100.00
41264;BME280;26998;48.714;9.414;2022-12-08T06:42:18;98542.28;;;-3.33;100.00
41264;BME280;26998;48.714;9.414;2022-12-08T06:44:44;98537.06;;;-3.33;100.00
41264;BME280;26998;48.714;9.414;2022-12-08T06:47:11;98542.53;;;-3.36;100.00
41264;BME280;26998;48.714;9.414;2022-12-08T06:49:37;98541.91;;;-3.29;100.00
41264;BME280;26998;48.714;9.414;2022-12-08T06:52:04;98544.28;;;-3.26;100.00
41264;BME280;26998;48.714;9.414;2022-12-08T06:54:31;98545.84;;;-3.23;100.00
41264;BME280;26998;48.714;9.414;2022-12-08T06:56:57;98537.53;;;-3.28;100.00
41264;BME280;26998;48.714;9.414;2022-12-08T06:59:24;98543.81;;;-3.31;100.00
41264;BME280;26998;48.714;9.414;2022-12-08T07:01:51;98548.09;;;-3.30;100.00
41264;BME280;26998;48.714;9.414;2022-12-08T07:04:17;98537.75;;;-3.31;100.00
41264;BME280;26998;48.714;9.414;2022-12-08T07:06:44;98544.53;;;-3.29;100.00
41264;BME280;26998;48.714;9.414;2022-12-08T07:09:10;98543.56;;;-3.28;100.00
41264;BME280;26998;48.714;9.414;2022-12-08T07:11:38;98542.06;;;-3.30;100.00
41264;BME280;26998;48.714;9.414;2022-12-08T07:14:05;98553.66;;;-3.34;100.00
41264;BME280;26998;48.714;9.414;2022-12-08T07:16:33;98556.19;;;-3.33;100.00
41264;BME280;26998;48.714;9.414;2022-12-08T07:19:00;98567.78;;;-3.37;100.00
41264;BME280;26998;48.714;9.414;2022-12-08T07:21:26;98578.72;;;-3.43;100.00
41264;BME280;26998;48.714;9.414;2022-12-08T07:23:53;98571.84;;;-3.44;100.00
41264;BME280;26998;48.714;9.414;2022-12-08T07:26:23;98573.03;;;-3.48;100.00
41264;BME280;26998;48.714;9.414;2022-12-08T07:28:50;98558.03;;;-3.46;100.00
41264;BME280;26998;48.714;9.414;2022-12-08T07:31:19;98563.03;;;-3.43;100.00
41264;BME280;26998;48.714;9.414;2022-12-08T07:33:46;98569.00;;;-3.41;100.00
41264;BME280;26998;48.714;9.414;2022-12-08T07:36:13;98567.69;;;-3.35;100.00
41264;BME280;26998;48.714;9.414;2022-12-08T07:38:40;98574.25;;;-3.30;100.00
41264;BME280;26998;48.714;9.414;2022-12-08T07:41:11;98574.69;;;-3.25;100.00
41264;BME280;26998;48.714;9.414;2022-12-08T07:43:38;98572.34;;;-3.16;100.00
41264;BME280;26998;48.714;9.414;2022-12-08T07:46:05;98579.34;;;-3.06;100.00
41264;BME280;26998;48.714;9.414;2022-12-08T07:48:32;98576.59;;;-2.93;100.00
41264;BME280;26998;48.714;9.414;2022-12-08T07:51:00;98579.69;;;-2.76;100.00
41264;BME280;26998;48.714;9.414;2022-12-08T07:53:26;98584.09;;;-2.77;100.00
41264;BME280;26998;48.714;9.414;2022-12-08T07:55:53;98589.53;;;-2.69;100.00
41264;BME280;26998;48.714;9.414;2022-12-08T07:58:19;98600.59;;;-2.54;100.00
41264;BME280;26998;48.714;9.414;2022-12-08T08:00:47;98605.94;;;-2.44;100.00
41264;BME280;26998;48.714;9.414;2022-12-08T08:03:13;98611.25;;;-2.35;100.00
41264;BME280;26998;48.714;9.414;2022-12-08T08:05:40;98614.31;;;-2.18;100.00
41264;BME280;26998;48.714;9.414;2022-12-08T08:08:07;98620.25;;;-2.16;100.00
41264;BME280;26998;48.714;9.414;2022-12-08T08:10:33;98634.25;;;-2.06;100.00
41264;BME280;26998;48.714;9.414;2022-12-08T08:13:00;98639.38;;;-2.04;100.00
41264;BME280;26998;48.714;9.414;2022-12-08T08:15:27;98632.59;;;-1.75;100.00
41264;BME280;26998;48.714;9.414;2022-12-08T08:17:54;98630.09;;;-1.65;100.00
41264;BME280;26998;48.714;9.414;2022-12-08T08:20:20;98634.28;;;-1.53;100.00
41264;BME280;26998;48.714;9.414;2022-12-08T08:22:48;98616.22;;;-1.35;100.00
41264;BME280;26998;48.714;9.414;2022-12-08T08:25:17;98615.84;;;-1.30;100.00
41264;BME280;26998;48.714;9.414;2022-12-08T08:27:44;98606.81;;;-1.37;100.00
41264;BME280;26998;48.714;9.414;2022-12-08T08:30:12;98606.47;;;-1.23;100.00
41264;BME280;26998;48.714;9.414;2022-12-08T08:32:45;98602.34;;;-0.95;100.00
41264;BME280;26998;48.714;9.414;2022-12-08T08:35:12;98581.09;;;-0.92;100.00
41264;BME280;26998;48.714;9.414;2022-12-08T08:37:38;98573.81;;;-0.79;100.00
41264;BME280;26998;48.714;9.414;2022-12-08T08:40:12;98561.25;;;-0.75;100.00
41264;BME280;26998;48.714;9.414;2022-12-08T08:42:39;98545.63;;;-0.86;100.00
41264;BME280;26998;48.714;9.414;2022-12-08T08:45:06;98549.13;;;-0.76;100.00
41264;BME280;26998;48.714;9.414;2022-12-08T08:47:32;98536.84;;;-0.66;100.00
41264;BME280;26998;48.714;9.414;2022-12-08T08:49:59;98527.06;;;-0.54;100.00
41264;BME280;26998;48.714;9.414;2022-12-08T08:52:28;98519.06;;;-0.33;100.00
41264;BME280;26998;48.714;9.414;2022-12-08T08:54:55;98511.75;;;-0.39;100.00
41264;BME280;26998;48.714;9.414;2022-12-08T08:57:21;98516.72;;;-0.36;100.00
41264;BME280;26998;48.714;9.414;2022-12-08T08:59:51;98509.41;;;-0.23;100.00
41264;BME280;26998;48.714;9.414;2022-12-08T09:02:18;98509.94;;;-0.10;100.00
41264;BME280;26998;48.714;9.414;2022-12-08T09:04:45;98480.19;;;0.19;100.00
41264;BME280;26998;48.714;9.414;2022-12-08T09:07:12;98450.69;;;0.35;100.00
41264;BME280;26998;48.714;9.414;2022-12-08T09:09:39;98441.91;;;0.07;100.00
41264;BME280;26998;48.714;9.414;2022-12-08T09:12:06;98451.19;;;0.01;100.00
41264;BME280;26998;48.714;9.414;2022-12-08T09:14:33;98449.63;;;0.18;100.00
41264;BME280;26998;48.714;9.414;2022-12-08T09:16:59;98438.72;;;-0.07;100.00
41264;BME280;26998;48.714;9.414;2022-12-08T09:19:26;98449.59;;;0.28;100.00
41264;BME280;26998;48.714;9.414;2022-12-08T09:21:53;98439.69;;;0.49;100.00
41264;BME280;26998;48.714;9.414;2022-12-08T09:24:19;98411.81;;;0.94;100.00
41264;BME280;26998;48.714;9.414;2022-12-08T09:26:46;98366.09;;;0.95;100.00
41264;BME280;26998;48.714;9.414;2022-12-08T09:29:12;98350.84;;;0.98;100.00
41264;BME280;26998;48.714;9.414;2022-12-08T09:31:39;98340.25;;;1.26;100.00
41264;BME280;26998;48.714;9.414;2022-12-08T09:34:06;98326.59;;;1.30;100.00
41264;BME280;26998;48.714;9.414;2022-12-08T09:36:32;98301.88;;;2.01;100.00
41264;BME280;26998;48.714;9.414;2022-12-08T09:38:59;98267.69;;;1.83;100.00
41264;BME280;26998;48.714;9.414;2022-12-08T09:41:32;98255.66;;;2.15;100.00
41264;BME280;26998;48.714;9.414;2022-12-08T09:47:00;98228.81;;;2.20;100.00
41264;BME280;26998;48.714;9.414;2022-12-08T09:49:58;98235.75;;;1.87;100.00
41264;BME280;26998;48.714;9.414;2022-12-08T09:52:40;98251.94;;;1.92;100.00
41264;BME280;26998;48.714;9.414;2022-12-08T09:55:15;98225.75;;;2.41;100.00
41264;BME280;26998;48.714;9.414;2022-12-08T09:57:42;98221.91;;;2.27;100.00
41264;BME280;26998;48.714;9.414;2022-12-08T10:00:11;98219.53;;;2.66;100.00
41264;BME280;26998;48.714;9.414;2022-12-08T10:02:37;98207.13;;;2.50;100.00
41264;BME280;26998;48.714;9.414;2022-12-08T10:05:05;98200.66;;;2.28;100.00
41264;BME280;26998;48.714;9.414;2022-12-08T10:07:39;98191.97;;;3.01;100.00
41264;BME280;26998;48.714;9.414;2022-12-08T10:10:31;98186.56;;;2.87;100.00
41264;BME280;26998;48.714;9.414;2022-12-08T10:13:51;98176.66;;;2.81;100.00
41264;BME280;26998;48.714;9.414;2022-12-08T10:16:30;98154.34;;;3.08;100.00
41264;BME280;26998;48.714;9.414;2022-12-08T10:19:09;98140.91;;;3.42;100.00
41264;BME280;26998;48.714;9.414;2022-12-08T10:21:38;98134.00;;;3.80;100.00
41264;BME280;26998;48.714;9.414;2022-12-08T10:24:12;98132.41;;;4.02;100.00
41264;BME280;26998;48.714;9.414;2022-12-08T10:26:43;98125.63;;;3.13;100.00
41264;BME280;26998;48.714;9.414;2022-12-08T10:29:13;98134.19;;;3.23;100.00
41264;BME280;26998;48.714;9.414;2022-12-08T10:31:40;98149.25;;;3.06;100.00
41264;BME280;26998;48.714;9.414;2022-12-08T10:34:27;98141.63;;;3.11;100.00
41264;BME280;26998;48.714;9.414;2022-12-08T10:36:56;98133.22;;;3.63;100.00
41264;BME280;26998;48.714;9.414;2022-12-08T10:39:41;98115.22;;;3.98;100.00
41264;BME280;26998;48.714;9.414;2022-12-08T10:42:17;98107.25;;;4.29;100.00
41264;BME280;26998;48.714;9.414;2022-12-08T10:48:00;98101.09;;;3.83;100.00
41264;BME280;26998;48.714;9.414;2022-12-08T10:50:41;98096.59;;;3.60;100.00
41264;BME280;26998;48.714;9.414;2022-12-08T10:55:46;98094.97;;;4.36;100.00
41264;BME280;26998;48.714;9.414;2022-12-08T10:58:35;98093.28;;;4.21;100.00
41264;BME280;26998;48.714;9.414;2022-12-08T11:03:56;98078.25;;;4.36;100.00
41264;BME280;26998;48.714;9.414;2022-12-08T11:06:39;98075.06;;;4.63;100.00
41264;BME280;26998;48.714;9.414;2022-12-08T11:09:22;98069.63;;;4.42;100.00
41264;BME280;26998;48.714;9.414;2022-12-08T11:11:56;98066.13;;;4.65;100.00
41264;BME280;26998;48.714;9.414;2022-12-08T11:14:25;98054.31;;;4.90;100.00
41264;BME280;26998;48.714;9.414;2022-12-08T11:16:55;98039.25;;;5.05;100.00
41264;BME280;26998;48.714;9.414;2022-12-08T11:19:27;98036.34;;;4.48;100.00
41264;BME280;26998;48.714;9.414;2022-12-08T11:21:54;98034.63;;;3.94;100.00
41264;BME280;26998;48.714;9.414;2022-12-08T11:24:26;98030.94;;;4.41;100.00
41264;BME280;26998;48.714;9.414;2022-12-08T11:27:03;98022.13;;;4.26;100.00
41264;BME280;26998;48.714;9.414;2022-12-08T11:29:32;98024.78;;;4.49;100.00
41264;BME280;26998;48.714;9.414;2022-12-08T11:32:06;98029.56;;;4.83;100.00
41264;BME280;26998;48.714;9.414;2022-12-08T11:37:38;98020.88;;;5.04;100.00
41264;BME280;26998;48.714;9.414;2022-12-08T11:40:09;98014.16;;;4.11;100.00
41264;BME280;26998;48.714;9.414;2022-12-08T11:42:51;98009.75;;;4.03;100.00
41264;BME280;26998;48.714;9.414;2022-12-08T11:45:24;98008.13;;;4.40;100.00
41264;BME280;26998;48.714;9.414;2022-12-08T11:48:10;98012.47;;;4.33;100.00
41264;BME280;26998;48.714;9.414;2022-12-08T11:50:48;98014.28;;;4.18;100.00
41264;BME280;26998;48.714;9.414;2022-12-08T11:53:26;98011.31;;;4.35;100.00
41264;BME280;26998;48.714;9.414;2022-12-08T11:56:00;98014.75;;;4.36;100.00
41264;BME280;26998;48.714;9.414;2022-12-08T11:59:06;98011.28;;;4.21;100.00
41264;BME280;26998;48.714;9.414;2022-12-08T12:01:36;98007.03;;;4.34;100.00
41264;BME280;26998;48.714;9.414;2022-12-08T12:04:19;98010.22;;;4.45;100.00
41264;BME280;26998;48.714;9.414;2022-12-08T12:09:35;98000.31;;;4.09;100.00
41264;BME280;26998;48.714;9.414;2022-12-08T12:12:14;98008.44;;;4.22;100.00
41264;BME280;26998;48.714;9.414;2022-12-08T12:15:24;98001.31;;;4.60;100.00
41264;BME280;26998;48.714;9.414;2022-12-08T12:18:00;98001.66;;;4.43;100.00
41264;BME280;26998;48.714;9.414;2022-12-08T12:20:38;98000.09;;;4.48;100.00
41264;BME280;26998;48.714;9.414;2022-12-08T12:23:33;97991.84;;;4.66;100.00
41264;BME280;26998;48.714;9.414;2022-12-08T12:26:05;97989.72;;;4.76;100.00
41264;BME280;26998;48.714;9.414;2022-12-08T12:28:43;97989.94;;;4.75;100.00
41264;BME280;26998;48.714;9.414;2022-12-08T12:31:15;97984.00;;;4.88;100.00
41264;BME280;26998;48.714;9.414;2022-12-08T12:33:45;97978.78;;;4.94;100.00
41264;BME280;26998;48.714;9.414;2022-12-08T12:36:13;97978.41;;;4.97;100.00
41264;BME280;26998;48.714;9.414;2022-12-08T12:38:51;97980.91;;;4.99;100.00
41264;BME280;26998;48.714;9.414;2022-12-08T12:41:35;97978.78;;;5.09;99.71
41264;BME280;26998;48.714;9.414;2022-12-08T12:47:00;97970.94;;;4.56;100.00
41264;BME280;26998;48.714;9.414;2022-12-08T12:54:44;97957.28;;;4.30;100.00
41264;BME280;26998;48.714;9.414;2022-12-08T12:57:38;97951.19;;;4.29;100.00
41264;BME280;26998;48.714;9.414;2022-12-08T13:02:32;97964.34;;;4.00;100.00
41264;BME280;26998;48.714;9.414;2022-12-08T13:07:51;97952.13;;;3.76;100.00
41264;BME280;26998;48.714;9.414;2022-12-08T13:10:22;97940.69;;;3.37;100.00
41264;BME280;26998;48.714;9.414;2022-12-08T13:15:39;97942.59;;;3.20;100.00
41264;BME280;26998;48.714;9.414;2022-12-08T13:18:24;97944.53;;;2.95;100.00
41264;BME280;26998;48.714;9.414;2022-12-08T13:20:58;97949.06;;;2.78;100.00
41264;BME280;26998;48.714;9.414;2022-12-08T13:37:00;97940.72;;;2.59;100.00
41264;BME280;26998;48.714;9.414;2022-12-08T13:44:44;97946.56;;;3.16;100.00
41264;BME280;26998;48.714;9.414;2022-12-08T13:47:34;97938.97;;;2.90;100.00
41264;BME280;26998;48.714;9.414;2022-12-08T13:50:13;97934.78;;;2.96;100.00
41264;BME280;26998;48.714;9.414;2022-12-08T13:53:16;97935.50;;;3.21;100.00
41264;BME280;26998;48.714;9.414;2022-12-08T13:56:04;97936.75;;;3.56;100.00
41264;BME280;26998;48.714;9.414;2022-12-08T13:59:23;97941.41;;;3.77;100.00
41264;BME280;26998;48.714;9.414;2022-12-08T14:01:50;97927.13;;;3.40;100.00
41264;BME280;26998;48.714;9.414;2022-12-08T14:04:20;97926.69;;;3.29;100.00
41264;BME280;26998;48.714;9.414;2022-12-08T14:07:08;97926.22;;;3.25;100.00
41264;BME280;26998;48.714;9.414;2022-12-08T14:09:36;97935.06;;;3.09;100.00
41264;BME280;26998;48.714;9.414;2022-12-08T14:12:06;97947.09;;;3.12;100.00
41264;BME280;26998;48.714;9.414;2022-12-08T14:14:42;97930.81;;;3.00;100.00
41264;BME280;26998;48.714;9.414;2022-12-08T14:17:30;97931.09;;;2.74;100.00
41264;BME280;26998;48.714;9.414;2022-12-08T14:20:00;97941.59;;;2.90;100.00
41264;BME280;26998;48.714;9.414;2022-12-08T14:22:35;97942.00;;;3.02;100.00
41264;BME280;26998;48.714;9.414;2022-12-08T14:25:04;97938.75;;;3.00;100.00
41264;BME280;26998;48.714;9.414;2022-12-08T14:27:33;97933.34;;;2.93;100.00